^^
Station Historical Data
Daily Summary for August 31, 2017 Units:  Metric    English   Both
« Previous Day
Next Day »
Daily Weekly Monthly Yearly Custom
  High: Low: Average:
Temperature: 21.1 °C 10.2 °C 16.2 °C
Dew Point: 1.2 °C -7.9 °C -4.2 °C
Humidity: 45% 14% 26%
Wind Speed: 25.9km/h 0km/h 11.1km/h
Wind Gust: 33.8km/h - -
Wind- - South
Pressure: 1021.2 hPa 1018.2 hPa -
Precipitation: 0 mm    
Historical Graphs
 
 
Tabular Data for August 31, 2017
Time Temperature Dew Point Pressure Wind Wind Speed Wind Gust Humidity Rainfall Rate (Hourly) solar Conditions
11:11 17.2 °C 1.2 °C 1019.9 hPa SSW 16.3 km/h 24.1 km/h 34% 0 mm 728.0 W/m2
11:22 17.8 °C 0.9 °C 1019.9 hPa SSW 17.7 km/h 24.1 km/h 32% 0 mm 731.0 W/m2
11:34 18.1 °C 0.7 °C 1019.5 hPa SSW 22.7 km/h 27.4 km/h 31% 0 mm 735.0 W/m2
11:49 18.8 °C -0.6 °C 1019.5 hPa SSW 20.9 km/h 33.8 km/h 27% 0 mm 740.0 W/m2
12:01 19.6 °C -2.7 °C 1019.2 hPa SSW 19.5 km/h 27.4 km/h 22% 0 mm 733.0 W/m2
12:10 19.4 °C -2.9 °C 1019.2 hPa SSW 17.7 km/h 24.1 km/h 22% 0 mm 724.0 W/m2
12:15 19.5 °C -2.8 °C 1019.2 hPa SSW 22.7 km/h 29 km/h 22% 0 mm 719.0 W/m2
12:20 19.7 °C -2.6 °C 1019.2 hPa SSW 19.5 km/h 29 km/h 22% 0 mm 710.0 W/m2
12:34 19.7 °C -2.6 °C 1019.2 hPa SSW 25.9 km/h 27.4 km/h 22% 0 mm 708.0 W/m2
12:39 19.8 °C -2.5 °C 1019.2 hPa SSW 20.9 km/h 24.1 km/h 22% 0 mm 705.0 W/m2
12:55 19.7 °C -0.9 °C 1018.8 hPa SSW 24.1 km/h 29 km/h 25% 0 mm 694.0 W/m2
14:09 20.5 °C -2 °C 1018.5 hPa South 13 km/h 24.1 km/h 22% 0 mm 536.0 W/m2
14:20 20.6 °C -3.8 °C 1018.5 hPa South 19.5 km/h 32.2 km/h 19% 0 mm 515.0 W/m2
15:04 21.1 °C -7.5 °C 1018.2 hPa SSW 22.7 km/h 25.7 km/h 14% 0 mm 390.0 W/m2
15:24 21.1 °C -6.6 °C 1018.2 hPa SSW 16.3 km/h 24.1 km/h 15% 0 mm 329.0 W/m2
15:36 21.1 °C -6.6 °C 1018.2 hPa South 14.3 km/h 19.3 km/h 15% 0 mm 299.0 W/m2
15:52 21 °C -7.5 °C 1018.5 hPa South 17.7 km/h 27.4 km/h 14% 0 mm 257.0 W/m2
16:06 21.1 °C -7.5 °C 1018.5 hPa South 16.3 km/h 27.4 km/h 14% 0 mm 218.0 W/m2
16:31 20.7 °C -7.8 °C 1018.5 hPa South 19.5 km/h 22.5 km/h 14% 0 mm 151.0 W/m2
16:40 20.5 °C -7.9 °C 1018.5 hPa South 19.5 km/h 20.9 km/h 14% 0 mm 118.0 W/m2
17:00 20.2 °C -7.3 °C 1018.8 hPa South 17.7 km/h 22.5 km/h 15% 0 mm 60.0 W/m2
17:08 19.8 °C -7.6 °C 1018.8 hPa South 19.5 km/h 24.1 km/h 15% 0 mm 35.0 W/m2
17:18 19.5 °C -7 °C 1018.8 hPa South 22.7 km/h 22.7 km/h 16% 0 mm 12.0 W/m2
17:23 19.3 °C -6.4 °C 1018.8 hPa South 17.7 km/h 22.5 km/h 17% 0 mm 9.0 W/m2
17:39 18.8 °C -5.3 °C 1019.2 hPa South 19.5 km/h 24.1 km/h 19% 0 mm 0.0 W/m2
17:48 18.6 °C -5.5 °C 1019.2 hPa South 14.3 km/h 19.3 km/h 19% 0 mm 0.0 W/m2
17:58 18.3 °C -5.1 °C 1019.2 hPa South 16.3 km/h 19.3 km/h 20% 0 mm 0.0 W/m2
18:08 18.1 °C -5.2 °C 1019.2 hPa South 14.3 km/h 19.3 km/h 20% 0 mm 0.0 W/m2
18:20 17.7 °C -5.6 °C 1019.2 hPa South 11.1 km/h 16.1 km/h 20% 0 mm 0.0 W/m2
18:31 17.4 °C -5.8 °C 1019.5 hPa South 7.9 km/h 14.5 km/h 20% 0 mm 0.0 W/m2
18:58 16.4 °C -6 °C 1019.5 hPa South 9.7 km/h 9.7 km/h 21% 0 mm 0.0 W/m2
19:43 14.2 °C -6.1 °C 1020.2 hPa South 9.7 km/h 9.7 km/h 24% 0 mm 0.0 W/m2
19:59 13.6 °C -6.6 °C 1020.2 hPa Calm     24% 0 mm 0.0 W/m2
20:16 13.5 °C -6.2 °C 1020.5 hPa Calm     25% 0 mm 0.0 W/m2
20:36 13.7 °C -6 °C 1020.5 hPa South 7.9 km/h 8 km/h 25% 0 mm 0.0 W/m2
20:48 12.5 °C -6 °C 1020.9 hPa Calm     27% 0 mm 0.0 W/m2
21:04 11.6 °C -6.3 °C 1021.2 hPa Calm     28% 0 mm 0.0 W/m2
21:18 11.5 °C -6.4 °C 1021.2 hPa Calm     28% 0 mm 0.0 W/m2
21:39 11.3 °C -6.1 °C 1021.2 hPa Calm   8 km/h 29% 0 mm 0.0 W/m2
21:55 10.8 °C -6.5 °C 1021.2 hPa Calm     29% 0 mm 0.0 W/m2
22:10 10.3 °C -5.3 °C 1021.2 hPa Calm     33% 0 mm 0.0 W/m2
22:28 10.6 °C -3.5 °C 1021.2 hPa Calm     37% 0 mm 0.0 W/m2
22:31 10.6 °C -2.4 °C 1021.2 hPa Calm     40% 0 mm 0.0 W/m2
22:37 10.8 °C -1.9 °C 1021.2 hPa Calm     41% 0 mm 0.0 W/m2
23:00 10.8 °C -1.6 °C 1021.2 hPa Calm     42% 0 mm 0.0 W/m2
23:06 10.7 °C -2 °C 1021.2 hPa Calm     41% 0 mm 0.0 W/m2
23:16 10.9 °C -1.5 °C 1021.2 hPa South 6.4 km/h 9.7 km/h 42% 0 mm 0.0 W/m2
23:25 11.1 °C -1.3 °C 1021.2 hPa Calm     42% 0 mm 0.0 W/m2
23:30 11.1 °C -1 °C 1021.2 hPa Calm     43% 0 mm 0.0 W/m2
23:36 10.8 °C -1 °C 1021.2 hPa Calm     44% 0 mm 0.0 W/m2
23:46 10.3 °C -1.4 °C 1021.2 hPa Calm     44% 0 mm 0.0 W/m2
23:51 10.2 °C -1.2 °C 1021.2 hPa Calm     45% 0 mm 0.0 W/m2
Canyon Roadhouse, Fishriver Canyon, Namibia
Compliments of Weather Underground - 1.75 mb